sensor_id;sensor_type;location;lat;lon;timestamp;P1;durP1;ratioP1;P2;durP2;ratioP2
31746;SDS011;18319;48.974;8.462;2023-03-12T00:01:08;4.67;;;3.10;;
31746;SDS011;18319;48.974;8.462;2023-03-12T00:03:39;3.60;;;3.27;;
31746;SDS011;18319;48.974;8.462;2023-03-12T00:06:07;5.43;;;3.40;;
31746;SDS011;18319;48.974;8.462;2023-03-12T00:08:34;6.83;;;3.30;;
31746;SDS011;18319;48.974;8.462;2023-03-12T00:11:04;5.07;;;2.67;;
31746;SDS011;18319;48.974;8.462;2023-03-12T00:13:32;5.23;;;2.90;;
31746;SDS011;18319;48.974;8.462;2023-03-12T00:16:03;6.17;;;3.00;;
31746;SDS011;18319;48.974;8.462;2023-03-12T00:18:31;4.60;;;2.40;;
31746;SDS011;18319;48.974;8.462;2023-03-12T00:20:58;4.97;;;3.07;;
31746;SDS011;18319;48.974;8.462;2023-03-12T00:23:27;5.00;;;2.60;;
31746;SDS011;18319;48.974;8.462;2023-03-12T00:25:58;4.23;;;2.97;;
31746;SDS011;18319;48.974;8.462;2023-03-12T00:28:25;3.33;;;2.37;;
31746;SDS011;18319;48.974;8.462;2023-03-12T00:30:52;4.13;;;2.30;;
31746;SDS011;18319;48.974;8.462;2023-03-12T00:33:19;3.93;;;2.63;;
31746;SDS011;18319;48.974;8.462;2023-03-12T00:35:45;6.20;;;2.60;;
31746;SDS011;18319;48.974;8.462;2023-03-12T00:38:12;2.73;;;2.57;;
31746;SDS011;18319;48.974;8.462;2023-03-12T00:40:40;3.17;;;2.10;;
31746;SDS011;18319;48.974;8.462;2023-03-12T00:43:07;3.40;;;3.10;;
31746;SDS011;18319;48.974;8.462;2023-03-12T00:45:34;6.80;;;2.67;;
31746;SDS011;18319;48.974;8.462;2023-03-12T00:48:00;2.60;;;2.40;;
31746;SDS011;18319;48.974;8.462;2023-03-12T00:50:27;2.33;;;2.13;;
31746;SDS011;18319;48.974;8.462;2023-03-12T00:52:54;2.57;;;1.93;;
31746;SDS011;18319;48.974;8.462;2023-03-12T00:55:21;3.10;;;2.00;;
31746;SDS011;18319;48.974;8.462;2023-03-12T00:57:49;2.00;;;1.80;;
31746;SDS011;18319;48.974;8.462;2023-03-12T01:00:16;2.20;;;1.60;;
31746;SDS011;18319;48.974;8.462;2023-03-12T01:02:43;2.20;;;2.10;;
31746;SDS011;18319;48.974;8.462;2023-03-12T01:05:11;4.67;;;1.63;;
31746;SDS011;18319;48.974;8.462;2023-03-12T01:07:38;2.13;;;1.80;;
31746;SDS011;18319;48.974;8.462;2023-03-12T01:10:06;2.10;;;1.60;;
31746;SDS011;18319;48.974;8.462;2023-03-12T01:12:34;3.57;;;2.63;;
31746;SDS011;18319;48.974;8.462;2023-03-12T01:15:02;3.67;;;1.93;;
31746;SDS011;18319;48.974;8.462;2023-03-12T01:17:30;2.30;;;1.73;;
31746;SDS011;18319;48.974;8.462;2023-03-12T01:19:57;5.77;;;2.00;;
31746;SDS011;18319;48.974;8.462;2023-03-12T01:22:24;1.80;;;1.70;;
31746;SDS011;18319;48.974;8.462;2023-03-12T01:24:50;4.63;;;1.50;;
31746;SDS011;18319;48.974;8.462;2023-03-12T01:27:17;3.17;;;1.90;;
31746;SDS011;18319;48.974;8.462;2023-03-12T01:29:44;2.33;;;1.80;;
31746;SDS011;18319;48.974;8.462;2023-03-12T01:32:13;1.43;;;1.33;;
31746;SDS011;18319;48.974;8.462;2023-03-12T01:34:41;5.83;;;1.60;;
31746;SDS011;18319;48.974;8.462;2023-03-12T01:37:07;2.07;;;1.73;;
31746;SDS011;18319;48.974;8.462;2023-03-12T01:39:34;1.70;;;1.60;;
31746;SDS011;18319;48.974;8.462;2023-03-12T01:42:01;2.10;;;1.87;;
31746;SDS011;18319;48.974;8.462;2023-03-12T01:44:28;3.03;;;2.13;;
31746;SDS011;18319;48.974;8.462;2023-03-12T01:46:55;2.00;;;1.90;;
31746;SDS011;18319;48.974;8.462;2023-03-12T01:49:24;1.63;;;1.40;;
31746;SDS011;18319;48.974;8.462;2023-03-12T01:51:53;3.07;;;1.93;;
31746;SDS011;18319;48.974;8.462;2023-03-12T01:54:25;2.00;;;1.50;;
31746;SDS011;18319;48.974;8.462;2023-03-12T01:56:55;3.10;;;1.60;;
31746;SDS011;18319;48.974;8.462;2023-03-12T01:59:23;1.50;;;1.40;;
31746;SDS011;18319;48.974;8.462;2023-03-12T02:01:54;2.63;;;1.70;;
31746;SDS011;18319;48.974;8.462;2023-03-12T02:04:21;2.77;;;1.60;;
31746;SDS011;18319;48.974;8.462;2023-03-12T02:06:52;2.60;;;1.63;;
31746;SDS011;18319;48.974;8.462;2023-03-12T02:09:22;2.53;;;1.63;;
31746;SDS011;18319;48.974;8.462;2023-03-12T02:11:50;2.60;;;1.60;;
31746;SDS011;18319;48.974;8.462;2023-03-12T02:14:17;3.37;;;1.40;;
31746;SDS011;18319;48.974;8.462;2023-03-12T02:16:44;1.73;;;1.60;;
31746;SDS011;18319;48.974;8.462;2023-03-12T02:19:12;3.23;;;2.17;;
31746;SDS011;18319;48.974;8.462;2023-03-12T02:21:45;2.73;;;1.80;;
31746;SDS011;18319;48.974;8.462;2023-03-12T02:24:14;4.07;;;1.73;;
31746;SDS011;18319;48.974;8.462;2023-03-12T02:26:48;1.83;;;1.73;;
31746;SDS011;18319;48.974;8.462;2023-03-12T02:29:15;6.93;;;2.10;;
31746;SDS011;18319;48.974;8.462;2023-03-12T02:31:43;3.77;;;1.70;;
31746;SDS011;18319;48.974;8.462;2023-03-12T02:34:13;5.00;;;1.80;;
31746;SDS011;18319;48.974;8.462;2023-03-12T02:36:40;6.00;;;1.60;;
31746;SDS011;18319;48.974;8.462;2023-03-12T02:39:08;3.00;;;2.17;;
31746;SDS011;18319;48.974;8.462;2023-03-12T02:41:37;2.10;;;1.63;;
31746;SDS011;18319;48.974;8.462;2023-03-12T02:44:08;2.80;;;2.23;;
31746;SDS011;18319;48.974;8.462;2023-03-12T02:46:38;2.57;;;2.37;;
31746;SDS011;18319;48.974;8.462;2023-03-12T02:49:07;2.17;;;1.97;;
31746;SDS011;18319;48.974;8.462;2023-03-12T02:51:35;2.93;;;2.30;;
31746;SDS011;18319;48.974;8.462;2023-03-12T02:54:02;1.97;;;1.87;;
31746;SDS011;18319;48.974;8.462;2023-03-12T02:56:29;4.37;;;2.40;;
31746;SDS011;18319;48.974;8.462;2023-03-12T02:58:56;2.57;;;1.77;;
31746;SDS011;18319;48.974;8.462;2023-03-12T03:01:25;3.57;;;2.53;;
31746;SDS011;18319;48.974;8.462;2023-03-12T03:03:52;4.93;;;2.20;;
31746;SDS011;18319;48.974;8.462;2023-03-12T03:06:19;2.87;;;1.90;;
31746;SDS011;18319;48.974;8.462;2023-03-12T03:08:46;4.53;;;2.40;;
31746;SDS011;18319;48.974;8.462;2023-03-12T03:11:13;6.37;;;2.80;;
31746;SDS011;18319;48.974;8.462;2023-03-12T03:13:40;3.83;;;1.93;;
31746;SDS011;18319;48.974;8.462;2023-03-12T03:16:07;3.83;;;2.60;;
31746;SDS011;18319;48.974;8.462;2023-03-12T03:18:35;2.13;;;1.70;;
31746;SDS011;18319;48.974;8.462;2023-03-12T03:21:03;6.83;;;2.73;;
31746;SDS011;18319;48.974;8.462;2023-03-12T03:23:31;2.63;;;2.20;;
31746;SDS011;18319;48.974;8.462;2023-03-12T03:25:59;2.10;;;1.80;;
31746;SDS011;18319;48.974;8.462;2023-03-12T03:28:27;2.23;;;1.80;;
31746;SDS011;18319;48.974;8.462;2023-03-12T03:30:55;2.00;;;1.77;;
31746;SDS011;18319;48.974;8.462;2023-03-12T03:33:25;4.70;;;1.60;;
31746;SDS011;18319;48.974;8.462;2023-03-12T03:35:53;2.30;;;1.93;;
31746;SDS011;18319;48.974;8.462;2023-03-12T03:38:20;2.30;;;1.77;;
31746;SDS011;18319;48.974;8.462;2023-03-12T03:40:47;2.13;;;1.60;;
31746;SDS011;18319;48.974;8.462;2023-03-12T03:43:14;2.47;;;1.77;;
31746;SDS011;18319;48.974;8.462;2023-03-12T03:45:41;1.90;;;1.70;;
31746;SDS011;18319;48.974;8.462;2023-03-12T03:48:08;3.07;;;1.60;;
31746;SDS011;18319;48.974;8.462;2023-03-12T03:50:35;2.17;;;1.70;;
31746;SDS011;18319;48.974;8.462;2023-03-12T03:53:04;3.80;;;1.60;;
31746;SDS011;18319;48.974;8.462;2023-03-12T03:55:35;2.13;;;1.83;;
31746;SDS011;18319;48.974;8.462;2023-03-12T03:58:02;2.13;;;1.53;;
31746;SDS011;18319;48.974;8.462;2023-03-12T04:00:29;5.63;;;1.83;;
31746;SDS011;18319;48.974;8.462;2023-03-12T04:02:56;5.43;;;1.93;;
31746;SDS011;18319;48.974;8.462;2023-03-12T04:05:23;2.10;;;1.90;;
31746;SDS011;18319;48.974;8.462;2023-03-12T04:07:50;3.47;;;1.70;;
31746;SDS011;18319;48.974;8.462;2023-03-12T04:10:19;1.77;;;1.67;;
31746;SDS011;18319;48.974;8.462;2023-03-12T04:12:47;3.80;;;1.80;;
31746;SDS011;18319;48.974;8.462;2023-03-12T04:15:14;4.53;;;2.10;;
31746;SDS011;18319;48.974;8.462;2023-03-12T04:17:41;2.43;;;1.53;;
31746;SDS011;18319;48.974;8.462;2023-03-12T04:20:08;3.17;;;1.37;;
31746;SDS011;18319;48.974;8.462;2023-03-12T04:22:36;2.30;;;1.97;;
31746;SDS011;18319;48.974;8.462;2023-03-12T04:25:03;2.43;;;1.80;;
31746;SDS011;18319;48.974;8.462;2023-03-12T04:27:33;2.87;;;1.60;;
31746;SDS011;18319;48.974;8.462;2023-03-12T04:30:00;2.97;;;1.40;;
31746;SDS011;18319;48.974;8.462;2023-03-12T04:32:27;1.57;;;1.47;;
31746;SDS011;18319;48.974;8.462;2023-03-12T04:34:53;2.30;;;1.70;;
31746;SDS011;18319;48.974;8.462;2023-03-12T04:37:20;2.90;;;1.60;;
31746;SDS011;18319;48.974;8.462;2023-03-12T04:39:47;2.00;;;1.47;;
31746;SDS011;18319;48.974;8.462;2023-03-12T04:42:14;2.00;;;1.53;;
31746;SDS011;18319;48.974;8.462;2023-03-12T04:44:42;1.87;;;1.50;;
31746;SDS011;18319;48.974;8.462;2023-03-12T04:47:09;1.90;;;1.50;;
31746;SDS011;18319;48.974;8.462;2023-03-12T04:49:36;1.57;;;1.47;;
31746;SDS011;18319;48.974;8.462;2023-03-12T04:52:03;2.40;;;1.40;;
31746;SDS011;18319;48.974;8.462;2023-03-12T04:54:31;1.40;;;1.30;;
31746;SDS011;18319;48.974;8.462;2023-03-12T04:56:57;4.97;;;1.73;;
31746;SDS011;18319;48.974;8.462;2023-03-12T04:59:24;3.13;;;1.70;;
31746;SDS011;18319;48.974;8.462;2023-03-12T05:01:52;2.13;;;1.60;;
31746;SDS011;18319;48.974;8.462;2023-03-12T05:04:19;1.77;;;1.50;;
31746;SDS011;18319;48.974;8.462;2023-03-12T05:06:46;2.73;;;2.20;;
31746;SDS011;18319;48.974;8.462;2023-03-12T05:09:12;2.10;;;1.70;;
31746;SDS011;18319;48.974;8.462;2023-03-12T05:11:39;3.83;;;1.80;;
31746;SDS011;18319;48.974;8.462;2023-03-12T05:14:06;2.83;;;1.87;;
31746;SDS011;18319;48.974;8.462;2023-03-12T05:16:33;1.90;;;1.70;;
31746;SDS011;18319;48.974;8.462;2023-03-12T05:19:01;2.77;;;1.63;;
31746;SDS011;18319;48.974;8.462;2023-03-12T05:21:29;3.43;;;2.47;;
31746;SDS011;18319;48.974;8.462;2023-03-12T05:23:57;2.80;;;2.17;;
31746;SDS011;18319;48.974;8.462;2023-03-12T05:26:25;3.83;;;2.10;;
31746;SDS011;18319;48.974;8.462;2023-03-12T05:28:53;6.30;;;2.00;;
31746;SDS011;18319;48.974;8.462;2023-03-12T05:31:20;2.53;;;2.00;;
31746;SDS011;18319;48.974;8.462;2023-03-12T05:33:47;3.77;;;3.40;;
31746;SDS011;18319;48.974;8.462;2023-03-12T05:36:15;5.50;;;5.00;;
31746;SDS011;18319;48.974;8.462;2023-03-12T05:38:42;4.77;;;4.37;;
31746;SDS011;18319;48.974;8.462;2023-03-12T05:43:43;3.13;;;2.47;;
31746;SDS011;18319;48.974;8.462;2023-03-12T05:46:09;2.17;;;1.97;;
31746;SDS011;18319;48.974;8.462;2023-03-12T05:48:38;3.70;;;2.37;;
31746;SDS011;18319;48.974;8.462;2023-03-12T05:51:04;2.07;;;1.87;;
31746;SDS011;18319;48.974;8.462;2023-03-12T05:53:32;1.70;;;1.60;;
31746;SDS011;18319;48.974;8.462;2023-03-12T05:56:01;3.67;;;1.90;;
31746;SDS011;18319;48.974;8.462;2023-03-12T05:58:28;2.87;;;2.60;;
31746;SDS011;18319;48.974;8.462;2023-03-12T06:00:55;4.37;;;2.00;;
31746;SDS011;18319;48.974;8.462;2023-03-12T06:03:22;3.00;;;1.90;;
31746;SDS011;18319;48.974;8.462;2023-03-12T06:05:49;3.83;;;2.00;;
31746;SDS011;18319;48.974;8.462;2023-03-12T06:08:19;4.40;;;2.43;;
31746;SDS011;18319;48.974;8.462;2023-03-12T06:10:48;1.33;;;1.33;;
31746;SDS011;18319;48.974;8.462;2023-03-12T06:13:16;2.50;;;1.87;;
31746;SDS011;18319;48.974;8.462;2023-03-12T06:15:42;3.10;;;2.13;;
31746;SDS011;18319;48.974;8.462;2023-03-12T06:18:09;2.20;;;1.83;;
31746;SDS011;18319;48.974;8.462;2023-03-12T06:20:36;1.70;;;1.60;;
31746;SDS011;18319;48.974;8.462;2023-03-12T06:23:02;2.83;;;2.00;;
31746;SDS011;18319;48.974;8.462;2023-03-12T06:25:29;3.43;;;1.77;;
31746;SDS011;18319;48.974;8.462;2023-03-12T06:27:57;3.37;;;2.30;;
31746;SDS011;18319;48.974;8.462;2023-03-12T06:30:24;2.90;;;2.23;;
31746;SDS011;18319;48.974;8.462;2023-03-12T06:32:51;2.63;;;2.20;;
31746;SDS011;18319;48.974;8.462;2023-03-12T06:35:18;2.30;;;2.10;;
31746;SDS011;18319;48.974;8.462;2023-03-12T06:37:45;4.63;;;3.00;;
31746;SDS011;18319;48.974;8.462;2023-03-12T06:40:12;3.13;;;2.83;;
31746;SDS011;18319;48.974;8.462;2023-03-12T06:42:39;3.13;;;2.87;;
31746;SDS011;18319;48.974;8.462;2023-03-12T06:45:07;4.70;;;3.10;;
31746;SDS011;18319;48.974;8.462;2023-03-12T06:47:35;5.73;;;5.20;;
31746;SDS011;18319;48.974;8.462;2023-03-12T06:50:02;4.57;;;3.27;;
31746;SDS011;18319;48.974;8.462;2023-03-12T06:52:29;6.63;;;5.07;;
31746;SDS011;18319;48.974;8.462;2023-03-12T06:54:55;3.03;;;2.63;;
31746;SDS011;18319;48.974;8.462;2023-03-12T06:57:22;3.13;;;2.50;;
31746;SDS011;18319;48.974;8.462;2023-03-12T06:59:49;2.97;;;1.90;;
31746;SDS011;18319;48.974;8.462;2023-03-12T07:02:17;3.63;;;2.23;;
31746;SDS011;18319;48.974;8.462;2023-03-12T07:04:44;2.77;;;2.57;;
31746;SDS011;18319;48.974;8.462;2023-03-12T07:07:11;3.50;;;2.60;;
31746;SDS011;18319;48.974;8.462;2023-03-12T07:09:38;4.33;;;2.80;;
31746;SDS011;18319;48.974;8.462;2023-03-12T07:12:05;1.97;;;1.80;;
31746;SDS011;18319;48.974;8.462;2023-03-12T07:14:32;5.20;;;2.20;;
31746;SDS011;18319;48.974;8.462;2023-03-12T07:16:58;2.83;;;1.73;;
31746;SDS011;18319;48.974;8.462;2023-03-12T07:19:27;2.33;;;1.93;;
31746;SDS011;18319;48.974;8.462;2023-03-12T07:21:55;4.13;;;2.10;;
31746;SDS011;18319;48.974;8.462;2023-03-12T07:24:22;4.07;;;2.10;;
31746;SDS011;18319;48.974;8.462;2023-03-12T07:26:48;3.70;;;2.37;;
31746;SDS011;18319;48.974;8.462;2023-03-12T07:29:15;2.50;;;2.30;;
31746;SDS011;18319;48.974;8.462;2023-03-12T07:31:42;1.97;;;1.87;;
31746;SDS011;18319;48.974;8.462;2023-03-12T07:34:09;2.83;;;2.37;;
31746;SDS011;18319;48.974;8.462;2023-03-12T07:36:37;3.27;;;2.60;;
31746;SDS011;18319;48.974;8.462;2023-03-12T07:39:03;5.57;;;2.30;;
31746;SDS011;18319;48.974;8.462;2023-03-12T07:41:30;3.27;;;2.80;;
31746;SDS011;18319;48.974;8.462;2023-03-12T07:43:57;4.03;;;2.83;;
31746;SDS011;18319;48.974;8.462;2023-03-12T07:46:24;5.13;;;3.37;;
31746;SDS011;18319;48.974;8.462;2023-03-12T07:48:50;6.77;;;3.17;;
31746;SDS011;18319;48.974;8.462;2023-03-12T07:51:17;5.27;;;3.07;;
31746;SDS011;18319;48.974;8.462;2023-03-12T07:53:45;2.87;;;2.43;;
31746;SDS011;18319;48.974;8.462;2023-03-12T07:56:12;2.47;;;2.27;;
31746;SDS011;18319;48.974;8.462;2023-03-12T07:58:39;3.10;;;2.90;;
31746;SDS011;18319;48.974;8.462;2023-03-12T08:01:06;2.63;;;2.43;;
31746;SDS011;18319;48.974;8.462;2023-03-12T08:03:32;5.97;;;3.00;;
31746;SDS011;18319;48.974;8.462;2023-03-12T08:06:00;3.90;;;2.80;;
31746;SDS011;18319;48.974;8.462;2023-03-12T08:08:29;3.83;;;3.23;;
31746;SDS011;18319;48.974;8.462;2023-03-12T08:10:57;4.27;;;3.20;;
31746;SDS011;18319;48.974;8.462;2023-03-12T08:13:25;3.83;;;2.57;;
31746;SDS011;18319;48.974;8.462;2023-03-12T08:15:52;5.30;;;3.40;;
31746;SDS011;18319;48.974;8.462;2023-03-12T08:18:19;3.07;;;2.73;;
31746;SDS011;18319;48.974;8.462;2023-03-12T08:20:48;3.73;;;3.43;;
31746;SDS011;18319;48.974;8.462;2023-03-12T08:23:15;5.10;;;3.03;;
31746;SDS011;18319;48.974;8.462;2023-03-12T08:25:43;3.30;;;3.00;;
31746;SDS011;18319;48.974;8.462;2023-03-12T08:28:12;3.17;;;2.77;;
31746;SDS011;18319;48.974;8.462;2023-03-12T08:30:38;4.07;;;3.73;;
31746;SDS011;18319;48.974;8.462;2023-03-12T08:33:09;6.73;;;4.13;;
31746;SDS011;18319;48.974;8.462;2023-03-12T08:35:36;5.67;;;3.73;;
31746;SDS011;18319;48.974;8.462;2023-03-12T08:38:03;5.20;;;3.20;;
31746;SDS011;18319;48.974;8.462;2023-03-12T08:40:30;3.10;;;2.90;;
31746;SDS011;18319;48.974;8.462;2023-03-12T08:42:56;3.00;;;2.73;;
31746;SDS011;18319;48.974;8.462;2023-03-12T08:45:25;4.30;;;2.70;;
31746;SDS011;18319;48.974;8.462;2023-03-12T08:47:51;5.73;;;3.57;;
31746;SDS011;18319;48.974;8.462;2023-03-12T08:50:18;4.33;;;2.97;;
31746;SDS011;18319;48.974;8.462;2023-03-12T08:52:46;4.43;;;3.00;;
31746;SDS011;18319;48.974;8.462;2023-03-12T08:55:13;3.07;;;2.87;;
31746;SDS011;18319;48.974;8.462;2023-03-12T08:57:40;3.80;;;3.27;;
31746;SDS011;18319;48.974;8.462;2023-03-12T09:00:07;3.60;;;3.30;;
31746;SDS011;18319;48.974;8.462;2023-03-12T09:02:41;3.97;;;3.37;;
31746;SDS011;18319;48.974;8.462;2023-03-12T09:05:09;4.50;;;3.43;;
31746;SDS011;18319;48.974;8.462;2023-03-12T09:07:36;3.60;;;3.30;;
31746;SDS011;18319;48.974;8.462;2023-03-12T09:10:03;3.60;;;3.30;;
31746;SDS011;18319;48.974;8.462;2023-03-12T09:12:30;6.07;;;3.57;;
31746;SDS011;18319;48.974;8.462;2023-03-12T09:14:57;4.33;;;3.77;;
31746;SDS011;18319;48.974;8.462;2023-03-12T09:17:24;3.97;;;3.27;;
31746;SDS011;18319;48.974;8.462;2023-03-12T09:19:52;5.43;;;3.83;;
31746;SDS011;18319;48.974;8.462;2023-03-12T09:22:19;3.97;;;3.43;;
31746;SDS011;18319;48.974;8.462;2023-03-12T09:24:46;4.37;;;3.73;;
31746;SDS011;18319;48.974;8.462;2023-03-12T09:27:12;4.60;;;4.20;;
31746;SDS011;18319;48.974;8.462;2023-03-12T09:29:39;4.53;;;3.50;;
31746;SDS011;18319;48.974;8.462;2023-03-12T09:32:06;4.80;;;4.27;;
31746;SDS011;18319;48.974;8.462;2023-03-12T09:34:33;4.73;;;3.97;;
31746;SDS011;18319;48.974;8.462;2023-03-12T09:37:01;7.10;;;5.10;;
31746;SDS011;18319;48.974;8.462;2023-03-12T09:39:28;7.03;;;3.93;;
31746;SDS011;18319;48.974;8.462;2023-03-12T09:41:55;5.93;;;5.33;;
31746;SDS011;18319;48.974;8.462;2023-03-12T09:44:24;5.80;;;4.30;;
31746;SDS011;18319;48.974;8.462;2023-03-12T09:47:00;5.93;;;4.87;;
31746;SDS011;18319;48.974;8.462;2023-03-12T09:49:33;6.30;;;5.23;;
31746;SDS011;18319;48.974;8.462;2023-03-12T09:52:07;5.33;;;4.53;;
31746;SDS011;18319;48.974;8.462;2023-03-12T09:54:43;5.33;;;4.37;;
31746;SDS011;18319;48.974;8.462;2023-03-12T09:57:16;7.47;;;5.20;;
31746;SDS011;18319;48.974;8.462;2023-03-12T09:59:48;5.00;;;4.70;;
31746;SDS011;18319;48.974;8.462;2023-03-12T10:02:22;6.13;;;5.43;;
31746;SDS011;18319;48.974;8.462;2023-03-12T10:05:10;6.53;;;5.77;;
31746;SDS011;18319;48.974;8.462;2023-03-12T10:07:45;5.10;;;4.57;;
31746;SDS011;18319;48.974;8.462;2023-03-12T10:10:22;5.70;;;5.07;;
31746;SDS011;18319;48.974;8.462;2023-03-12T10:13:04;5.00;;;4.67;;
31746;SDS011;18319;48.974;8.462;2023-03-12T10:15:49;5.50;;;4.77;;
31746;SDS011;18319;48.974;8.462;2023-03-12T10:18:30;5.40;;;4.90;;
31746;SDS011;18319;48.974;8.462;2023-03-12T10:21:09;5.27;;;4.63;;
31746;SDS011;18319;48.974;8.462;2023-03-12T10:23:50;8.07;;;5.57;;
31746;SDS011;18319;48.974;8.462;2023-03-12T10:26:34;7.17;;;5.07;;
31746;SDS011;18319;48.974;8.462;2023-03-12T10:29:07;6.40;;;5.80;;
31746;SDS011;18319;48.974;8.462;2023-03-12T10:31:40;6.63;;;5.63;;
31746;SDS011;18319;48.974;8.462;2023-03-12T10:34:14;4.97;;;4.57;;
31746;SDS011;18319;48.974;8.462;2023-03-12T10:36:46;6.87;;;6.40;;
31746;SDS011;18319;48.974;8.462;2023-03-12T10:39:14;5.63;;;5.23;;
31746;SDS011;18319;48.974;8.462;2023-03-12T10:41:43;5.10;;;4.60;;
31746;SDS011;18319;48.974;8.462;2023-03-12T10:44:13;5.80;;;5.23;;
31746;SDS011;18319;48.974;8.462;2023-03-12T10:46:49;5.20;;;4.70;;
31746;SDS011;18319;48.974;8.462;2023-03-12T10:49:27;5.93;;;5.43;;
31746;SDS011;18319;48.974;8.462;2023-03-12T10:51:57;5.43;;;4.93;;
31746;SDS011;18319;48.974;8.462;2023-03-12T10:54:28;7.53;;;5.33;;
31746;SDS011;18319;48.974;8.462;2023-03-12T10:56:56;5.40;;;4.90;;
31746;SDS011;18319;48.974;8.462;2023-03-12T10:59:26;6.07;;;4.93;;
31746;SDS011;18319;48.974;8.462;2023-03-12T11:01:54;5.30;;;4.87;;
31746;SDS011;18319;48.974;8.462;2023-03-12T11:04:22;5.30;;;4.93;;
31746;SDS011;18319;48.974;8.462;2023-03-12T11:07:01;8.17;;;5.20;;
31746;SDS011;18319;48.974;8.462;2023-03-12T11:09:45;6.67;;;5.27;;
31746;SDS011;18319;48.974;8.462;2023-03-12T11:12:29;5.07;;;4.68;;
31746;SDS011;18319;48.974;8.462;2023-03-12T11:14:56;9.05;;;5.30;;
31746;SDS011;18319;48.974;8.462;2023-03-12T11:17:23;6.95;;;4.50;;
31746;SDS011;18319;48.974;8.462;2023-03-12T11:19:51;5.03;;;4.57;;
31746;SDS011;18319;48.974;8.462;2023-03-12T11:22:26;4.75;;;4.15;;
31746;SDS011;18319;48.974;8.462;2023-03-12T11:24:57;5.70;;;4.82;;
31746;SDS011;18319;48.974;8.462;2023-03-12T11:27:29;4.55;;;4.25;;
31746;SDS011;18319;48.974;8.462;2023-03-12T11:30:04;5.78;;;4.53;;
31746;SDS011;18319;48.974;8.462;2023-03-12T11:32:33;7.10;;;4.38;;
31746;SDS011;18319;48.974;8.462;2023-03-12T11:35:08;6.80;;;4.63;;
31746;SDS011;18319;48.974;8.462;2023-03-12T11:37:39;4.68;;;4.28;;
31746;SDS011;18319;48.974;8.462;2023-03-12T11:40:17;4.93;;;3.97;;
31746;SDS011;18319;48.974;8.462;2023-03-12T11:43:00;4.80;;;4.15;;
31746;SDS011;18319;48.974;8.462;2023-03-12T11:45:44;6.78;;;3.75;;
31746;SDS011;18319;48.974;8.462;2023-03-12T11:48:20;5.28;;;3.95;;
31746;SDS011;18319;48.974;8.462;2023-03-12T11:50:54;5.22;;;3.25;;
31746;SDS011;18319;48.974;8.462;2023-03-12T11:53:34;4.75;;;3.20;;
31746;SDS011;18319;48.974;8.462;2023-03-12T11:56:26;4.78;;;2.50;;
31746;SDS011;18319;48.974;8.462;2023-03-12T11:59:01;3.97;;;2.70;;
31746;SDS011;18319;48.974;8.462;2023-03-12T12:01:46;4.00;;;2.40;;
31746;SDS011;18319;48.974;8.462;2023-03-12T12:04:32;5.57;;;2.40;;
31746;SDS011;18319;48.974;8.462;2023-03-12T12:07:16;2.67;;;1.98;;
31746;SDS011;18319;48.974;8.462;2023-03-12T12:10:01;7.10;;;2.38;;
31746;SDS011;18319;48.974;8.462;2023-03-12T12:12:42;5.45;;;2.08;;
31746;SDS011;18319;48.974;8.462;2023-03-12T12:15:19;3.65;;;2.33;;
31746;SDS011;18319;48.974;8.462;2023-03-12T12:17:56;5.40;;;2.40;;
31746;SDS011;18319;48.974;8.462;2023-03-12T12:20:30;3.17;;;2.13;;
31746;SDS011;18319;48.974;8.462;2023-03-12T12:23:08;2.42;;;2.22;;
31746;SDS011;18319;48.974;8.462;2023-03-12T12:28:36;2.88;;;1.85;;
31746;SDS011;18319;48.974;8.462;2023-03-12T12:31:21;3.50;;;2.22;;
31746;SDS011;18319;48.974;8.462;2023-03-12T12:34:00;2.80;;;2.38;;
31746;SDS011;18319;48.974;8.462;2023-03-12T12:36:37;5.53;;;2.47;;
31746;SDS011;18319;48.974;8.462;2023-03-12T12:39:05;2.42;;;1.98;;
31746;SDS011;18319;48.974;8.462;2023-03-12T12:41:36;3.00;;;2.20;;
31746;SDS011;18319;48.974;8.462;2023-03-12T12:44:09;5.93;;;2.30;;
31746;SDS011;18319;48.974;8.462;2023-03-12T12:46:40;2.97;;;1.92;;
31746;SDS011;18319;48.974;8.462;2023-03-12T12:49:10;5.13;;;2.20;;
31746;SDS011;18319;48.974;8.462;2023-03-12T12:51:42;4.50;;;2.08;;
31746;SDS011;18319;48.974;8.462;2023-03-12T12:54:15;5.43;;;2.03;;
31746;SDS011;18319;48.974;8.462;2023-03-12T12:56:50;6.40;;;2.53;;
31746;SDS011;18319;48.974;8.462;2023-03-12T12:59:23;4.95;;;1.95;;
31746;SDS011;18319;48.974;8.462;2023-03-12T13:01:58;3.78;;;1.92;;
31746;SDS011;18319;48.974;8.462;2023-03-12T13:04:28;4.40;;;1.83;;
31746;SDS011;18319;48.974;8.462;2023-03-12T13:07:00;4.63;;;1.92;;
31746;SDS011;18319;48.974;8.462;2023-03-12T13:09:39;6.70;;;2.03;;
31746;SDS011;18319;48.974;8.462;2023-03-12T13:12:17;4.85;;;1.42;;
31746;SDS011;18319;48.974;8.462;2023-03-12T13:14:47;4.63;;;2.03;;
31746;SDS011;18319;48.974;8.462;2023-03-12T13:17:24;4.80;;;1.80;;
31746;SDS011;18319;48.974;8.462;2023-03-12T13:19:57;3.05;;;1.75;;
31746;SDS011;18319;48.974;8.462;2023-03-12T13:22:39;2.72;;;1.70;;
31746;SDS011;18319;48.974;8.462;2023-03-12T13:25:30;3.95;;;1.70;;
31746;SDS011;18319;48.974;8.462;2023-03-12T13:28:26;3.67;;;1.80;;
31746;SDS011;18319;48.974;8.462;2023-03-12T13:31:35;9.40;;;2.15;;
31746;SDS011;18319;48.974;8.462;2023-03-12T13:37:20;7.15;;;2.08;;
31746;SDS011;18319;48.974;8.462;2023-03-12T13:39:57;2.63;;;1.55;;
31746;SDS011;18319;48.974;8.462;2023-03-12T13:42:34;5.32;;;1.98;;
31746;SDS011;18319;48.974;8.462;2023-03-12T13:45:19;4.47;;;1.88;;
31746;SDS011;18319;48.974;8.462;2023-03-12T13:47:50;4.07;;;1.48;;
31746;SDS011;18319;48.974;8.462;2023-03-12T13:50:23;3.38;;;1.85;;
31746;SDS011;18319;48.974;8.462;2023-03-12T13:52:54;6.43;;;1.92;;
31746;SDS011;18319;48.974;8.462;2023-03-12T13:55:30;3.88;;;1.58;;
31746;SDS011;18319;48.974;8.462;2023-03-12T13:57:59;10.45;;;2.40;;
31746;SDS011;18319;48.974;8.462;2023-03-12T14:00:35;5.50;;;1.55;;
31746;SDS011;18319;48.974;8.462;2023-03-12T14:03:08;7.00;;;1.90;;
31746;SDS011;18319;48.974;8.462;2023-03-12T14:05:44;5.47;;;1.58;;
31746;SDS011;18319;48.974;8.462;2023-03-12T14:11:17;3.80;;;1.48;;
31746;SDS011;18319;48.974;8.462;2023-03-12T14:17:01;10.05;;;1.77;;
31746;SDS011;18319;48.974;8.462;2023-03-12T14:19:32;7.22;;;1.80;;
31746;SDS011;18319;48.974;8.462;2023-03-12T14:22:01;10.57;;;1.98;;
31746;SDS011;18319;48.974;8.462;2023-03-12T14:24:32;6.55;;;1.90;;
31746;SDS011;18319;48.974;8.462;2023-03-12T14:27:00;3.22;;;1.55;;
31746;SDS011;18319;48.974;8.462;2023-03-12T14:29:30;6.15;;;1.77;;
31746;SDS011;18319;48.974;8.462;2023-03-12T14:32:02;11.88;;;2.17;;
31746;SDS011;18319;48.974;8.462;2023-03-12T14:34:32;7.40;;;1.85;;
31746;SDS011;18319;48.974;8.462;2023-03-12T14:37:08;4.75;;;1.83;;
31746;SDS011;18319;48.974;8.462;2023-03-12T14:39:41;7.75;;;2.00;;
31746;SDS011;18319;48.974;8.462;2023-03-12T14:42:17;6.60;;;2.00;;
31746;SDS011;18319;48.974;8.462;2023-03-12T14:44:53;6.32;;;1.58;;
31746;SDS011;18319;48.974;8.462;2023-03-12T14:47:23;3.97;;;1.45;;
31746;SDS011;18319;48.974;8.462;2023-03-12T14:49:51;7.68;;;1.70;;
31746;SDS011;18319;48.974;8.462;2023-03-12T14:52:21;6.72;;;1.73;;
31746;SDS011;18319;48.974;8.462;2023-03-12T14:54:53;6.10;;;2.33;;
31746;SDS011;18319;48.974;8.462;2023-03-12T14:57:21;3.95;;;1.30;;
31746;SDS011;18319;48.974;8.462;2023-03-12T14:59:50;4.72;;;1.55;;
31746;SDS011;18319;48.974;8.462;2023-03-12T15:02:18;5.55;;;1.58;;
31746;SDS011;18319;48.974;8.462;2023-03-12T15:04:46;4.80;;;1.30;;
31746;SDS011;18319;48.974;8.462;2023-03-12T15:07:16;9.15;;;1.45;;
31746;SDS011;18319;48.974;8.462;2023-03-12T15:09:47;8.32;;;1.65;;
31746;SDS011;18319;48.974;8.462;2023-03-12T15:12:18;7.60;;;2.03;;
31746;SDS011;18319;48.974;8.462;2023-03-12T15:14:47;6.20;;;1.77;;
31746;SDS011;18319;48.974;8.462;2023-03-12T15:17:17;5.07;;;1.60;;
31746;SDS011;18319;48.974;8.462;2023-03-12T15:19:45;6.60;;;1.55;;